Time;durP1;ratioP1;P1;durP2;ratioP2;P2;SDS_P1;SDS_P2;PMS_P1;PMS_P2;Temp;Humidity;BMP_temperature;BMP_pressure;BME280_temperature;BME280_humidity;BME280_pressure;Samples;Min_cycle;Max_cycle;Signal;HPM_P1;HPM_P2
2023/05/17 00:00:08;;;;;;;8.52;6.32;;;11.10;99.90;;;;;;5037240;28;20024;-82
2023/05/17 00:02:35;;;;;;;6.65;6.05;;;11.20;99.90;;;;;;5036819;28;20024;-82
2023/05/17 00:05:00;;;;;;;6.15;5.50;;;11.10;99.90;;;;;;5054999;28;20025;-82
2023/05/17 00:07:26;;;;;;;7.25;6.55;;;11.10;99.90;;;;;;5055009;28;20086;-82
2023/05/17 00:09:51;;;;;;;6.63;5.97;;;11.20;99.90;;;;;;5037078;28;20032;-81
2023/05/17 00:12:17;;;;;;;5.97;5.47;;;11.20;99.90;;;;;;5054957;28;20025;-82
2023/05/17 00:14:42;;;;;;;5.57;5.03;;;11.10;99.90;;;;;;5036871;28;20032;-82
2023/05/17 00:17:08;;;;;;;5.82;5.20;;;11.10;99.90;;;;;;5030374;28;20049;-82
2023/05/17 00:19:34;;;;;;;4.70;4.30;;;11.10;99.90;;;;;;5017123;28;20491;-81
2023/05/17 00:21:59;;;;;;;5.80;5.30;;;11.10;99.90;;;;;;5012841;28;20060;-81
2023/05/17 00:24:26;;;;;;;5.03;4.63;;;11.10;99.90;;;;;;5016970;28;20028;-81
2023/05/17 00:26:51;;;;;;;4.75;4.20;;;11.00;99.90;;;;;;5034655;28;20489;-81
2023/05/17 00:29:17;;;;;;;4.25;3.85;;;11.00;99.90;;;;;;5016876;28;20017;-81
2023/05/17 00:31:43;;;;;;;4.70;4.30;;;11.00;99.90;;;;;;5016931;28;20025;-82
2023/05/17 00:34:08;;;;;;;4.70;4.30;;;11.00;99.90;;;;;;5034727;28;20053;-81
2023/05/17 00:36:34;;;;;;;4.20;3.85;;;11.00;99.90;;;;;;5034425;28;20034;-81
2023/05/17 00:38:59;;;;;;;5.07;4.68;;;11.00;99.90;;;;;;5016720;28;20536;-81
2023/05/17 00:41:25;;;;;;;4.15;3.85;;;10.90;99.90;;;;;;5016683;28;20029;-81
2023/05/17 00:43:51;;;;;;;3.78;3.47;;;10.90;99.90;;;;;;5016632;28;20044;-81
2023/05/17 00:46:16;;;;;;;3.90;3.53;;;10.90;99.90;;;;;;5016596;28;20026;-81
2023/05/17 00:48:42;;;;;;;3.78;3.47;;;10.90;99.90;;;;;;5016510;28;20018;-82
2023/05/17 00:51:08;;;;;;;4.22;3.83;;;10.80;99.90;;;;;;5034315;28;20030;-81
2023/05/17 00:53:36;;;;;;;4.03;3.72;;;10.80;99.90;;;;;;5034306;28;20356;-81
2023/05/17 00:56:02;;;;;;;4.28;3.88;;;10.70;99.90;;;;;;5034136;28;20029;-82
2023/05/17 00:58:29;;;;;;;3.85;3.47;;;10.70;99.90;;;;;;5016247;28;20116;-81
2023/05/17 01:00:55;;;;;;;4.50;4.10;;;10.70;99.90;;;;;;5016369;28;20025;-81
2023/05/17 01:03:23;;;;;;;4.03;3.72;;;10.70;99.90;;;;;;5034040;28;20482;-81
2023/05/17 01:05:50;;;;;;;4.35;4.05;;;10.60;99.90;;;;;;5016245;28;20156;-81
2023/05/17 01:08:15;;;;;;;4.07;3.67;;;10.60;99.90;;;;;;5016197;28;20490;-81
2023/05/17 01:11:23;;;;;;;4.13;3.83;;;10.60;99.90;;;;;;5016000;28;20018;-82
2023/05/17 01:14:21;;;;;;;3.92;3.65;;;10.60;99.90;;;;;;5032568;28;20033;-81
2023/05/17 01:16:55;;;;;;;4.28;3.97;;;10.60;99.90;;;;;;5002466;28;20057;-81
2023/05/17 01:19:47;;;;;;;4.40;4.10;;;10.60;99.90;;;;;;5052361;28;20074;-81
2023/05/17 01:22:44;;;;;;;3.97;3.65;;;10.60;99.90;;;;;;5053863;28;20060;-81
2023/05/17 01:25:23;;;;;;;4.55;4.15;;;10.60;99.90;;;;;;5052320;28;20432;-81
2023/05/17 01:27:49;;;;;;;4.20;3.90;;;10.60;99.90;;;;;;5052310;28;20416;-81
2023/05/17 01:30:16;;;;;;;5.75;4.32;;;10.60;99.90;;;;;;5035636;28;20025;-82
2023/05/17 01:32:43;;;;;;;4.70;4.30;;;10.60;99.90;;;;;;5035520;28;20032;-81
2023/05/17 01:35:11;;;;;;;6.78;5.10;;;10.60;99.90;;;;;;5051992;28;20086;-81
2023/05/17 01:37:37;;;;;;;5.93;4.85;;;10.60;99.90;;;;;;5052112;28;20485;-82
2023/05/17 01:40:05;;;;;;;4.32;3.92;;;10.60;99.90;;;;;;5053407;28;20021;-81
2023/05/17 01:42:32;;;;;;;4.78;4.38;;;10.60;99.90;;;;;;5053283;28;20505;-81
2023/05/17 01:45:21;;;;;;;4.28;3.88;;;10.60;99.90;;;;;;5053282;28;20075;-81
2023/05/17 01:48:00;;;;;;;4.85;4.45;;;10.60;99.90;;;;;;5052112;28;20532;-82
2023/05/17 01:50:29;;;;;;;5.03;4.63;;;10.60;99.90;;;;;;5053226;28;20063;-82
2023/05/17 01:53:10;;;;;;;5.68;4.75;;;10.60;99.90;;;;;;5052582;28;20492;-81
2023/05/17 01:55:55;;;;;;;5.50;5.00;;;10.60;99.90;;;;;;5051693;28;20029;-81
2023/05/17 01:58:24;;;;;;;4.05;3.65;;;10.60;99.90;;;;;;5051870;28;20021;-82
2023/05/17 02:00:52;;;;;;;5.13;4.72;;;10.60;99.90;;;;;;5051907;28;20087;-81
2023/05/17 02:03:19;;;;;;;5.97;5.38;;;10.60;99.90;;;;;;5051895;28;20382;-82
2023/05/17 02:05:45;;;;;;;5.80;5.28;;;10.60;99.90;;;;;;5035357;28;20021;-81
2023/05/17 02:08:10;;;;;;;5.05;4.38;;;10.60;99.90;;;;;;5051759;28;20116;-82
2023/05/17 02:10:36;;;;;;;5.05;4.63;;;10.60;99.90;;;;;;5051711;28;20056;-81
2023/05/17 02:13:02;;;;;;;4.78;4.38;;;10.60;99.90;;;;;;5051830;28;20174;-82
2023/05/17 02:15:27;;;;;;;4.97;4.57;;;10.60;99.90;;;;;;5035087;28;20032;-81
2023/05/17 02:17:53;;;;;;;4.28;3.95;;;10.60;99.90;;;;;;5052837;28;20106;-81
2023/05/17 02:20:18;;;;;;;4.53;4.13;;;10.60;99.90;;;;;;5052927;28;20075;-81
2023/05/17 02:22:44;;;;;;;6.30;5.20;;;10.60;99.90;;;;;;5051557;28;20018;-81
2023/05/17 02:25:10;;;;;;;5.43;4.95;;;10.60;99.90;;;;;;5055829;28;20021;-81
2023/05/17 02:27:36;;;;;;;5.68;4.22;;;10.60;99.90;;;;;;5056914;28;20027;-81
2023/05/17 02:30:03;;;;;;;5.22;4.57;;;10.60;99.90;;;;;;5055812;28;20067;-81
2023/05/17 02:32:29;;;;;;;5.00;4.50;;;10.60;99.90;;;;;;5038928;28;20533;-81
2023/05/17 02:34:55;;;;;;;4.75;4.35;;;10.60;99.90;;;;;;5038930;28;20029;-81
2023/05/17 02:37:20;;;;;;;5.60;5.10;;;10.60;99.90;;;;;;5056540;28;20037;-81
2023/05/17 02:39:46;;;;;;;6.03;5.03;;;10.60;99.90;;;;;;5055425;28;20017;-81
2023/05/17 02:42:12;;;;;;;5.30;4.82;;;10.60;99.90;;;;;;5056651;28;20033;-81
2023/05/17 02:44:37;;;;;;;5.70;5.20;;;10.60;99.90;;;;;;5055442;28;20064;-81
2023/05/17 02:47:03;;;;;;;5.93;5.43;;;10.60;99.90;;;;;;5055279;28;20017;-81
2023/05/17 02:49:29;;;;;;;6.38;5.78;;;10.60;99.90;;;;;;5056364;28;20405;-81
2023/05/17 02:51:55;;;;;;;6.93;5.40;;;10.50;99.90;;;;;;5055102;28;20029;-81
2023/05/17 02:54:20;;;;;;;6.45;5.85;;;10.60;99.90;;;;;;5038186;28;20021;-81
2023/05/17 02:56:46;;;;;;;5.80;5.22;;;10.60;99.90;;;;;;5056206;28;20033;-81
2023/05/17 02:59:12;;;;;;;5.65;5.05;;;10.60;99.90;;;;;;5056346;28;20413;-81
2023/05/17 03:01:37;;;;;;;5.78;5.28;;;10.60;99.90;;;;;;5056200;28;20021;-81
2023/05/17 03:04:03;;;;;;;6.07;4.97;;;10.70;99.90;;;;;;5056122;28;20477;-81
2023/05/17 03:06:28;;;;;;;6.22;5.63;;;10.60;99.90;;;;;;5054848;28;20116;-81
2023/05/17 03:08:54;;;;;;;5.25;4.78;;;10.60;99.90;;;;;;5056522;28;20084;-81
2023/05/17 03:11:19;;;;;;;5.53;4.97;;;10.60;99.90;;;;;;5054796;28;20020;-81
2023/05/17 03:13:50;;;;;;;5.13;4.72;;;10.60;99.90;;;;;;5054758;28;20059;-81
2023/05/17 03:16:16;;;;;;;4.95;4.55;;;10.60;99.90;;;;;;5054728;28;20044;-81
2023/05/17 03:18:41;;;;;;;5.53;5.13;;;10.50;99.90;;;;;;5018896;28;20041;-81
2023/05/17 03:21:07;;;;;;;4.50;4.18;;;10.60;99.90;;;;;;5018187;28;20024;-81
2023/05/17 03:23:32;;;;;;;4.65;4.25;;;10.60;99.90;;;;;;5018208;28;20024;-81
2023/05/17 03:25:58;;;;;;;4.95;4.47;;;10.60;99.90;;;;;;5035993;28;20379;-81
2023/05/17 03:28:24;;;;;;;5.20;4.70;;;10.60;99.90;;;;;;5018113;28;20025;-81
2023/05/17 03:30:49;;;;;;;5.22;4.80;;;10.60;99.90;;;;;;5018075;28;20025;-81
2023/05/17 03:33:15;;;;;;;5.40;5.00;;;10.60;99.90;;;;;;5017967;28;20119;-81
2023/05/17 03:35:40;;;;;;;5.10;4.70;;;10.60;99.90;;;;;;5034754;28;20084;-82
2023/05/17 03:38:06;;;;;;;5.55;5.00;;;10.60;99.90;;;;;;5017839;28;20018;-81
2023/05/17 03:40:32;;;;;;;5.47;4.97;;;10.60;99.90;;;;;;5018044;28;20029;-81
2023/05/17 03:42:57;;;;;;;5.55;5.05;;;10.60;99.90;;;;;;5035516;28;20410;-81
2023/05/17 03:45:23;;;;;;;5.65;5.15;;;10.60;99.90;;;;;;5017715;28;20041;-81
2023/05/17 03:47:48;;;;;;;5.40;4.90;;;10.60;99.90;;;;;;5017812;28;20057;-81
2023/05/17 03:50:14;;;;;;;5.70;5.20;;;10.60;99.90;;;;;;5035382;28;20035;-81
2023/05/17 03:52:40;;;;;;;4.60;4.22;;;10.60;99.90;;;;;;5017480;28;20386;-81
2023/05/17 03:55:06;;;;;;;6.05;5.47;;;10.60;99.90;;;;;;5035274;28;20021;-81
2023/05/17 03:57:32;;;;;;;5.18;4.78;;;10.60;99.90;;;;;;5035237;28;20482;-81
2023/05/17 03:59:58;;;;;;;5.68;5.13;;;10.60;99.90;;;;;;5035250;28;20079;-81
2023/05/17 04:02:24;;;;;;;7.57;5.57;;;10.60;99.90;;;;;;5017287;28;20080;-81
2023/05/17 04:04:51;;;;;;;5.82;5.32;;;10.70;99.90;;;;;;5017307;28;20025;-81
2023/05/17 04:07:17;;;;;;;4.95;4.55;;;10.70;99.90;;;;;;5017315;28;20025;-81
2023/05/17 04:09:43;;;;;;;6.65;5.50;;;10.70;99.90;;;;;;5017218;28;20390;-81
2023/05/17 04:12:09;;;;;;;5.07;4.57;;;10.70;99.90;;;;;;5035324;28;20360;-81
2023/05/17 04:14:38;;;;;;;4.85;4.43;;;10.70;99.90;;;;;;5034728;28;20029;-81
2023/05/17 04:17:04;;;;;;;5.35;4.55;;;10.60;99.90;;;;;;5045943;28;20083;-81
2023/05/17 04:19:30;;;;;;;4.35;3.95;;;10.70;99.90;;;;;;5056987;28;20032;-81
2023/05/17 04:21:55;;;;;;;3.83;3.53;;;10.70;99.90;;;;;;5074718;28;20071;-81
2023/05/17 04:24:21;;;;;;;4.28;3.55;;;10.70;99.90;;;;;;5057049;28;20071;-81
2023/05/17 04:26:47;;;;;;;3.42;3.13;;;10.70;99.90;;;;;;5074491;28;20474;-81
2023/05/17 04:29:12;;;;;;;2.72;2.00;;;10.70;99.90;;;;;;5074639;28;20024;-81
2023/05/17 04:31:38;;;;;;;3.15;2.85;;;10.70;99.90;;;;;;5056598;28;20025;-81
2023/05/17 04:34:03;;;;;;;3.35;3.10;;;10.70;99.90;;;;;;5074559;28;20020;-82
2023/05/17 04:36:29;;;;;;;2.85;2.65;;;10.70;99.90;;;;;;5056514;28;20082;-81
2023/05/17 04:38:55;;;;;;;7.50;3.65;;;10.80;99.90;;;;;;5074314;28;20386;-81
2023/05/17 04:41:21;;;;;;;3.60;3.30;;;10.80;99.90;;;;;;5056421;28;20024;-80
2023/05/17 04:43:46;;;;;;;4.30;3.53;;;10.80;99.90;;;;;;5056412;28;20433;-81
2023/05/17 04:46:12;;;;;;;4.13;3.72;;;10.80;99.90;;;;;;5040080;28;20382;-81
2023/05/17 04:48:37;;;;;;;3.83;3.38;;;10.80;99.90;;;;;;5037145;28;20020;-80
2023/05/17 04:51:04;;;;;;;4.45;3.92;;;10.80;99.90;;;;;;5035339;28;20017;-81
2023/05/17 04:53:30;;;;;;;3.60;3.30;;;10.80;99.90;;;;;;5062087;28;20074;-80
2023/05/17 04:55:58;;;;;;;3.35;3.05;;;10.80;99.90;;;;;;5037105;28;20110;-81
2023/05/17 04:58:24;;;;;;;3.97;3.38;;;10.70;99.90;;;;;;5033169;28;20096;-81
2023/05/17 05:00:50;;;;;;;4.25;3.50;;;10.70;99.90;;;;;;5036230;28;20056;-80
2023/05/17 05:03:16;;;;;;;3.67;3.38;;;10.70;99.90;;;;;;5036358;28;20107;-81
2023/05/17 05:05:42;;;;;;;3.95;3.65;;;10.70;99.90;;;;;;5036136;28;20115;-81
2023/05/17 05:08:09;;;;;;;4.25;3.85;;;10.80;99.90;;;;;;5035996;28;20048;-81
2023/05/17 05:10:35;;;;;;;7.68;6.60;;;10.80;99.90;;;;;;5053564;28;20481;-81
2023/05/17 05:13:00;;;;;;;6.45;4.72;;;10.80;99.90;;;;;;5055316;28;20029;-81
2023/05/17 05:15:26;;;;;;;4.13;3.72;;;10.70;99.90;;;;;;5051729;28;20523;-80
2023/05/17 05:17:52;;;;;;;3.83;3.53;;;10.80;99.90;;;;;;5034517;28;20049;-81
2023/05/17 05:20:17;;;;;;;5.00;4.20;;;10.80;99.90;;;;;;5072685;28;20375;-80
2023/05/17 05:22:43;;;;;;;4.68;4.22;;;10.80;99.90;;;;;;5056269;28;20013;-80
2023/05/17 05:25:09;;;;;;;4.85;4.18;;;10.80;99.90;;;;;;5055611;28;20021;-80
2023/05/17 05:27:34;;;;;;;4.15;3.75;;;10.70;99.90;;;;;;5035619;28;20426;-81
2023/05/17 05:30:01;;;;;;;4.70;4.28;;;10.80;99.90;;;;;;5014333;28;20114;-81
2023/05/17 05:32:26;;;;;;;6.20;5.20;;;10.70;99.90;;;;;;5033619;28;20033;-81
2023/05/17 05:34:52;;;;;;;5.05;4.55;;;10.70;99.90;;;;;;5070619;28;20028;-81
2023/05/17 05:37:18;;;;;;;4.55;4.15;;;10.80;99.90;;;;;;5070226;28;20059;-80
2023/05/17 05:39:44;;;;;;;4.82;4.28;;;10.80;99.90;;;;;;5051563;28;20022;-80
2023/05/17 05:42:10;;;;;;;4.60;4.20;;;10.80;99.90;;;;;;5053233;28;20385;-80
2023/05/17 05:44:36;;;;;;;4.15;3.75;;;10.80;99.90;;;;;;5072148;28;20025;-81
2023/05/17 05:47:02;;;;;;;5.38;4.88;;;10.80;99.90;;;;;;5054202;28;20116;-81
2023/05/17 05:49:27;;;;;;;5.32;4.60;;;10.80;99.90;;;;;;5054719;28;20032;-81
2023/05/17 05:51:53;;;;;;;4.50;4.05;;;10.70;99.90;;;;;;5073079;28;20024;-80
2023/05/17 05:54:18;;;;;;;4.18;3.72;;;10.80;99.90;;;;;;5055230;28;20023;-81
2023/05/17 05:56:44;;;;;;;3.50;3.20;;;10.80;99.90;;;;;;5055143;28;20032;-80
2023/05/17 05:59:10;;;;;;;4.70;3.72;;;10.80;99.90;;;;;;5072772;28;20028;-80
2023/05/17 06:01:36;;;;;;;3.90;3.60;;;10.80;99.90;;;;;;5055173;28;20086;-80
2023/05/17 06:04:02;;;;;;;4.22;3.38;;;10.80;99.90;;;;;;5073141;28;20059;-80
2023/05/17 06:06:27;;;;;;;3.45;3.20;;;10.80;99.90;;;;;;5053111;28;20478;-80
2023/05/17 06:08:53;;;;;;;4.47;3.25;;;10.90;99.90;;;;;;5053207;28;20028;-80
2023/05/17 06:11:19;;;;;;;3.40;3.00;;;10.90;99.90;;;;;;5053423;28;20438;-81
2023/05/17 06:13:45;;;;;;;4.22;3.83;;;10.90;99.90;;;;;;5071658;28;20038;-81
2023/05/17 06:16:11;;;;;;;3.40;2.95;;;10.90;99.90;;;;;;5053546;28;20405;-81
2023/05/17 06:18:37;;;;;;;3.55;3.25;;;10.90;99.90;;;;;;5035081;28;20049;-80
2023/05/17 06:21:02;;;;;;;3.10;2.80;;;10.90;99.90;;;;;;5034818;28;20052;-80
2023/05/17 06:23:28;;;;;;;3.53;3.30;;;10.90;99.90;;;;;;5052871;28;20040;-80
2023/05/17 06:25:54;;;;;;;3.55;2.90;;;10.90;99.90;;;;;;5035157;28;20025;-80
2023/05/17 06:28:19;;;;;;;3.22;2.95;;;10.80;99.90;;;;;;5052865;28;20478;-81
2023/05/17 06:30:45;;;;;;;4.32;2.80;;;10.80;99.90;;;;;;5052929;28;20028;-81
2023/05/17 06:33:11;;;;;;;4.20;3.80;;;10.80;99.90;;;;;;5052972;28;20079;-81
2023/05/17 06:35:37;;;;;;;4.05;3.72;;;10.80;99.90;;;;;;5034914;28;20029;-81
2023/05/17 06:38:03;;;;;;;3.53;3.22;;;10.80;99.90;;;;;;5031664;28;20049;-81
2023/05/17 06:40:28;;;;;;;5.93;4.32;;;10.80;99.90;;;;;;5034942;28;20021;-80
2023/05/17 06:42:54;;;;;;;4.05;3.72;;;10.70;99.90;;;;;;5034890;28;20072;-80
2023/05/17 06:45:20;;;;;;;4.13;3.70;;;10.80;99.90;;;;;;5035031;28;20099;-80
2023/05/17 06:47:46;;;;;;;4.30;3.90;;;10.80;99.90;;;;;;5034899;28;20021;-81
2023/05/17 06:50:12;;;;;;;4.93;4.53;;;10.80;99.90;;;;;;5034933;28;20010;-81
2023/05/17 06:52:37;;;;;;;4.53;3.70;;;10.80;99.90;;;;;;5052617;28;20159;-81
2023/05/17 06:55:03;;;;;;;4.70;3.95;;;10.80;99.90;;;;;;5052769;28;20493;-81
2023/05/17 06:57:29;;;;;;;4.68;3.85;;;10.80;99.90;;;;;;5034664;28;20398;-81
2023/05/17 06:59:55;;;;;;;5.28;4.68;;;10.70;99.90;;;;;;5052647;28;20029;-81
2023/05/17 07:02:20;;;;;;;5.25;4.75;;;10.80;99.90;;;;;;5034669;28;20123;-81
2023/05/17 07:04:46;;;;;;;4.80;4.40;;;10.70;99.90;;;;;;5052655;28;20027;-80
2023/05/17 07:07:11;;;;;;;4.80;4.32;;;10.70;99.90;;;;;;5034723;28;20083;-81
2023/05/17 07:09:37;;;;;;;4.22;3.83;;;10.70;99.90;;;;;;5034810;28;20029;-81
2023/05/17 07:12:04;;;;;;;4.20;3.80;;;10.70;99.90;;;;;;5054788;28;20086;-81
2023/05/17 07:14:30;;;;;;;4.70;3.95;;;10.80;99.90;;;;;;5056151;28;20025;-80
2023/05/17 07:16:56;;;;;;;3.70;3.40;;;10.70;99.90;;;;;;5055832;28;20056;-81
2023/05/17 07:19:22;;;;;;;3.85;3.53;;;10.70;99.90;;;;;;5038145;28;20421;-81
2023/05/17 07:21:47;;;;;;;4.38;3.97;;;10.70;99.90;;;;;;5055959;28;20024;-81
2023/05/17 07:24:13;;;;;;;3.63;3.33;;;10.60;99.90;;;;;;5037982;28;20099;-80
2023/05/17 07:26:39;;;;;;;4.18;3.88;;;10.60;99.90;;;;;;5055862;28;20031;-80
2023/05/17 07:29:04;;;;;;;5.35;4.80;;;10.60;99.90;;;;;;5037888;28;20025;-81
2023/05/17 07:31:30;;;;;;;5.20;4.20;;;10.50;99.90;;;;;;5037877;28;20390;-80
2023/05/17 07:33:56;;;;;;;5.32;4.47;;;10.50;99.90;;;;;;5055753;28;20021;-80
2023/05/17 07:36:21;;;;;;;5.60;5.10;;;10.50;99.90;;;;;;5055463;28;20059;-80
2023/05/17 07:38:47;;;;;;;5.25;4.75;;;10.50;99.90;;;;;;5055705;28;20025;-81
2023/05/17 07:41:15;;;;;;;5.75;5.05;;;10.50;99.90;;;;;;5055644;28;20021;-80
2023/05/17 07:43:41;;;;;;;5.97;4.90;;;10.40;99.90;;;;;;5037509;28;20040;-80
2023/05/17 07:46:07;;;;;;;6.35;5.60;;;10.40;99.90;;;;;;5055455;28;20025;-80
2023/05/17 07:48:33;;;;;;;6.78;5.63;;;10.40;99.90;;;;;;5055486;28;20036;-80
2023/05/17 07:50:58;;;;;;;6.75;5.88;;;10.40;99.90;;;;;;5055421;28;20103;-81
2023/05/17 07:53:24;;;;;;;7.22;6.10;;;10.40;99.90;;;;;;5037203;28;20021;-80
2023/05/17 07:55:50;;;;;;;7.00;6.30;;;10.30;99.90;;;;;;5037362;28;20037;-81
2023/05/17 07:58:15;;;;;;;6.70;6.00;;;10.30;99.90;;;;;;5036693;28;20107;-81
2023/05/17 08:00:41;;;;;;;8.23;6.63;;;10.40;99.90;;;;;;5037263;28;20025;-80
2023/05/17 08:03:07;;;;;;;7.15;6.47;;;10.40;99.90;;;;;;5037199;28;20462;-80
2023/05/17 08:05:32;;;;;;;6.88;6.18;;;10.40;99.90;;;;;;5055132;28;20025;-81
2023/05/17 08:07:59;;;;;;;7.25;6.55;;;10.40;99.90;;;;;;5055098;28;20028;-81
2023/05/17 08:10:25;;;;;;;8.60;6.50;;;10.50;99.90;;;;;;5037159;28;20021;-81
2023/05/17 08:12:52;;;;;;;8.40;6.50;;;10.50;99.90;;;;;;5037000;28;20079;-81
2023/05/17 08:15:17;;;;;;;6.88;5.95;;;10.50;99.90;;;;;;5037071;28;20025;-80
2023/05/17 08:17:43;;;;;;;7.32;6.55;;;10.40;99.90;;;;;;5036879;28;20052;-81
2023/05/17 08:20:09;;;;;;;9.15;6.10;;;10.20;99.90;;;;;;5054883;28;20052;-80
2023/05/17 08:22:35;;;;;;;7.97;7.18;;;10.10;99.90;;;;;;5036527;28;20025;-80
2023/05/17 08:25:01;;;;;;;9.98;8.35;;;10.00;99.90;;;;;;5036914;28;20410;-80
2023/05/17 08:27:29;;;;;;;10.55;8.38;;;9.90;99.90;;;;;;5054625;28;20052;-81
2023/05/17 08:29:56;;;;;;;12.15;9.68;;;9.80;99.90;;;;;;5036956;28;20126;-81
2023/05/17 08:32:22;;;;;;;13.52;10.55;;;9.70;99.90;;;;;;5037140;28;20521;-81
2023/05/17 08:34:48;;;;;;;11.27;9.85;;;9.70;99.90;;;;;;5036779;28;20023;-80
2023/05/17 08:37:14;;;;;;;13.70;11.05;;;9.70;99.90;;;;;;5036469;28;20033;-80
2023/05/17 08:39:39;;;;;;;14.27;11.75;;;9.60;99.90;;;;;;5036637;28;20025;-80
2023/05/17 08:42:08;;;;;;;14.10;11.57;;;9.70;99.90;;;;;;5054416;28;20033;-80
2023/05/17 08:44:35;;;;;;;16.52;12.50;;;9.60;99.90;;;;;;5054491;28;20381;-81
2023/05/17 08:47:02;;;;;;;15.98;11.38;;;9.50;99.90;;;;;;5036498;28;20363;-81
2023/05/17 08:49:33;;;;;;;16.25;12.25;;;9.50;99.90;;;;;;5036471;28;20045;-80
2023/05/17 08:52:00;;;;;;;16.52;12.65;;;9.50;99.90;;;;;;5036373;28;20017;-80
2023/05/17 08:54:26;;;;;;;17.83;11.32;;;9.50;99.90;;;;;;5054238;28;20013;-80
2023/05/17 08:56:59;;;;;;;16.30;11.70;;;9.50;99.90;;;;;;5054026;28;20040;-80
2023/05/17 08:59:25;;;;;;;;;;;9.50;99.90;;;;;;5036928;28;20498;-80
2023/05/17 09:01:53;;;;;;;17.23;11.95;;;9.50;99.90;;;;;;5036206;28;19905;-80
2023/05/17 09:04:20;;;;;;;14.68;11.57;;;9.50;99.90;;;;;;5054125;28;20379;-80
2023/05/17 09:06:46;;;;;;;16.17;11.60;;;9.50;99.90;;;;;;5036102;28;20116;-80
2023/05/17 09:09:12;;;;;;;12.57;11.25;;;9.50;99.90;;;;;;5036047;28;20458;-80
2023/05/17 09:11:38;;;;;;;15.95;12.52;;;9.60;99.90;;;;;;5053641;28;20019;-80
2023/05/17 09:14:05;;;;;;;16.48;11.75;;;9.50;99.90;;;;;;5035911;28;20107;-80
2023/05/17 09:16:34;;;;;;;18.35;11.82;;;9.40;99.90;;;;;;5035616;28;20390;-80
2023/05/17 09:19:00;;;;;;;16.15;12.07;;;9.40;99.90;;;;;;5035938;28;20036;-80
2023/05/17 09:21:27;;;;;;;17.88;12.75;;;9.40;99.90;;;;;;5035823;28;20029;-80
2023/05/17 09:23:54;;;;;;;15.75;12.32;;;9.40;99.90;;;;;;5053698;28;20378;-80
2023/05/17 09:26:21;;;;;;;16.17;12.73;;;9.40;99.90;;;;;;5053594;28;20410;-80
2023/05/17 09:28:47;;;;;;;20.42;13.68;;;9.50;99.90;;;;;;5035703;28;20013;-80
2023/05/17 09:31:15;;;;;;;18.05;13.25;;;9.50;99.90;;;;;;5033568;28;20488;-80
2023/05/17 09:33:48;;;;;;;16.45;12.98;;;9.40;99.90;;;;;;5003386;28;20030;-81
2023/05/17 09:36:18;;;;;;;17.75;11.90;;;9.50;99.90;;;;;;5013114;28;20029;-81
2023/05/17 09:38:54;;;;;;;16.27;12.65;;;9.40;99.90;;;;;;4995765;28;20018;-80
2023/05/17 09:41:21;;;;;;;14.60;11.10;;;9.40;99.90;;;;;;4995511;28;20069;-80
2023/05/17 09:43:47;;;;;;;17.65;12.93;;;9.40;99.90;;;;;;4995674;28;20030;-80
2023/05/17 09:46:14;;;;;;;14.18;11.15;;;9.50;99.90;;;;;;4995612;28;20112;-80
2023/05/17 09:48:39;;;;;;;14.70;11.55;;;9.50;99.90;;;;;;5013185;28;20604;-80
2023/05/17 09:51:06;;;;;;;19.13;12.02;;;9.50;99.90;;;;;;5002557;28;20056;-80
2023/05/17 09:53:38;;;;;;;15.02;12.57;;;9.50;99.90;;;;;;5031384;28;20104;-80
2023/05/17 09:56:05;;;;;;;12.85;10.30;;;9.50;99.90;;;;;;5029712;28;20044;-80
2023/05/17 09:58:32;;;;;;;14.02;10.63;;;9.50;99.90;;;;;;5010673;28;20030;-80
2023/05/17 10:01:00;;;;;;;16.20;11.15;;;9.50;99.90;;;;;;5010903;28;20036;-79
2023/05/17 10:03:29;;;;;;;15.50;11.60;;;9.60;99.90;;;;;;5032376;28;20033;-80
2023/05/17 10:05:54;;;;;;;13.32;10.88;;;9.60;99.90;;;;;;5030701;28;20037;-80
2023/05/17 10:08:26;;;;;;;17.20;11.05;;;9.60;99.90;;;;;;5013014;28;20017;-80
2023/05/17 10:10:59;;;;;;;14.88;10.85;;;9.50;99.90;;;;;;5012290;28;20517;-80
2023/05/17 10:13:29;;;;;;;11.77;9.23;;;9.60;99.90;;;;;;5013248;28;20033;-80
2023/05/17 10:15:54;;;;;;;13.65;10.82;;;9.50;99.90;;;;;;5028936;28;20037;-79
2023/05/17 10:18:21;;;;;;;12.02;8.15;;;9.60;99.90;;;;;;5047311;28;20051;-79
2023/05/17 10:20:48;;;;;;;14.82;10.85;;;9.50;99.90;;;;;;5051226;28;20471;-79
2023/05/17 10:23:15;;;;;;;16.23;11.35;;;9.50;99.90;;;;;;5048682;28;20049;-80
2023/05/17 10:25:42;;;;;;;13.13;8.57;;;9.50;99.90;;;;;;5051297;28;20032;-80
2023/05/17 10:28:09;;;;;;;10.90;8.50;;;9.50;99.90;;;;;;5032745;28;20037;-79
2023/05/17 10:30:36;;;;;;;11.50;8.80;;;9.50;99.90;;;;;;5030637;28;20475;-79
2023/05/17 10:33:03;;;;;;;11.95;8.27;;;9.50;99.90;;;;;;5032489;28;20389;-79
2023/05/17 10:35:31;;;;;;;12.25;9.07;;;9.50;99.90;;;;;;5051430;28;20031;-79
2023/05/17 10:37:56;;;;;;;11.70;8.80;;;9.50;99.90;;;;;;5033713;28;20079;-80
2023/05/17 10:40:23;;;;;;;9.50;8.18;;;9.60;99.90;;;;;;5051987;28;20417;-80
2023/05/17 10:42:51;;;;;;;9.88;7.57;;;9.60;99.90;;;;;;5051855;28;20079;-80
2023/05/17 10:45:23;;;;;;;11.45;8.43;;;9.60;99.90;;;;;;5051815;28;20029;-79
2023/05/17 10:47:52;;;;;;;9.52;7.75;;;9.60;99.90;;;;;;5052535;28;20397;-80
2023/05/17 10:50:23;;;;;;;11.55;9.63;;;9.50;99.90;;;;;;5036107;28;20021;-79
2023/05/17 10:52:50;;;;;;;14.63;10.40;;;9.60;99.90;;;;;;5035658;28;20405;-79
2023/05/17 10:55:21;;;;;;;11.18;9.07;;;9.60;99.90;;;;;;5035595;28;20032;-79
2023/05/17 10:58:10;;;;;;;12.77;9.25;;;9.70;99.90;;;;;;5034212;28;20037;-79
2023/05/17 11:00:40;;;;;;;10.35;8.63;;;9.70;99.90;;;;;;5033829;28;20021;-79
2023/05/17 11:03:28;;;;;;;11.25;8.82;;;9.70;99.90;;;;;;5036932;28;20043;-79
2023/05/17 11:06:09;;;;;;;11.57;9.52;;;9.70;99.90;;;;;;5037567;28;20056;-79
2023/05/17 11:08:35;;;;;;;9.95;7.15;;;9.70;99.90;;;;;;5033717;28;20425;-79
2023/05/17 11:11:09;;;;;;;9.80;8.05;;;9.60;99.90;;;;;;5037414;28;20112;-79
2023/05/17 11:13:51;;;;;;;10.32;8.35;;;9.60;99.90;;;;;;5056253;28;20021;-80
2023/05/17 11:16:19;;;;;;;9.73;7.75;;;9.60;99.90;;;;;;5055829;28;20036;-79
2023/05/17 11:18:50;;;;;;;9.38;7.40;;;9.50;99.90;;;;;;5050646;28;20090;-79
2023/05/17 11:21:16;;;;;;;10.30;8.13;;;9.40;99.90;;;;;;5035894;28;20026;-79
2023/05/17 11:23:43;;;;;;;10.65;8.10;;;9.50;99.90;;;;;;5018245;28;20028;-80
2023/05/17 11:26:32;;;;;;;13.10;9.30;;;9.50;99.90;;;;;;5035802;28;20068;-80
2023/05/17 11:29:09;;;;;;;13.32;8.45;;;9.50;99.90;;;;;;5035930;28;20386;-80
2023/05/17 11:31:36;;;;;;;10.52;7.68;;;9.40;99.90;;;;;;5018195;28;20379;-80
2023/05/17 11:34:05;;;;;;;11.80;8.60;;;9.10;99.90;;;;;;5018130;28;20112;-79
2023/05/17 11:36:32;;;;;;;12.23;8.68;;;9.00;99.90;;;;;;5016363;28;20042;-79
2023/05/17 11:39:12;;;;;;;13.30;8.10;;;9.00;99.90;;;;;;5015735;28;20025;-79
2023/05/17 11:41:40;;;;;;;9.70;7.22;;;8.90;99.90;;;;;;4998160;28;20077;-79
2023/05/17 11:44:07;;;;;;;11.07;8.02;;;8.80;99.90;;;;;;4998091;28;20018;-79
2023/05/17 11:46:33;;;;;;;10.95;7.82;;;8.80;99.90;;;;;;4998142;28;20475;-80
2023/05/17 11:49:00;;;;;;;11.90;8.13;;;8.90;99.90;;;;;;4998115;28;20017;-79
2023/05/17 11:51:26;;;;;;;11.88;8.90;;;8.90;99.90;;;;;;4997993;28;20046;-80
2023/05/17 11:53:56;;;;;;;11.77;8.27;;;8.80;99.90;;;;;;5015584;28;20038;-80
2023/05/17 11:56:23;;;;;;;15.13;10.25;;;8.90;99.90;;;;;;4999704;28;20762;-80
2023/05/17 11:58:53;;;;;;;13.35;9.23;;;8.90;99.90;;;;;;5017307;28;20438;-80
2023/05/17 12:01:18;;;;;;;12.30;8.73;;;8.90;99.90;;;;;;5035093;28;20044;-80
2023/05/17 12:03:46;;;;;;;13.68;8.65;;;8.80;99.90;;;;;;5017354;28;20030;-80
2023/05/17 12:06:14;;;;;;;12.40;9.43;;;8.80;99.90;;;;;;5017306;28;20021;-80
2023/05/17 12:08:45;;;;;;;12.52;9.75;;;8.80;99.90;;;;;;5017292;28;20053;-81
2023/05/17 12:11:16;;;;;;;9.75;7.78;;;8.70;99.90;;;;;;5017026;28;20475;-80
2023/05/17 12:13:42;;;;;;;12.50;8.85;;;8.80;99.90;;;;;;5017217;28;20044;-80
2023/05/17 12:16:16;;;;;;;17.02;10.00;;;8.80;99.90;;;;;;5010984;28;20034;-80
2023/05/17 12:18:43;;;;;;;14.88;8.93;;;8.80;99.90;;;;;;5031941;28;20555;-80
2023/05/17 12:21:13;;;;;;;14.90;9.43;;;8.80;99.90;;;;;;5035260;28;20211;-80
2023/05/17 12:23:42;;;;;;;11.63;8.68;;;8.80;99.90;;;;;;5032782;28;20155;-80
2023/05/17 12:26:15;;;;;;;17.52;8.73;;;8.70;99.90;;;;;;5035811;28;20033;-80
2023/05/17 12:28:43;;;;;;;12.23;7.57;;;8.70;99.90;;;;;;5056116;28;20020;-80
2023/05/17 12:31:15;;;;;;;13.30;8.77;;;8.70;99.90;;;;;;5074029;28;20543;-79
2023/05/17 12:33:42;;;;;;;10.40;8.05;;;8.80;99.90;;;;;;5074306;28;20016;-79
2023/05/17 12:36:10;;;;;;;14.27;7.63;;;8.70;99.90;;;;;;5056294;28;20028;-80
2023/05/17 12:38:42;;;;;;;14.13;9.15;;;8.80;99.90;;;;;;5068015;28;20024;-79
2023/05/17 12:41:11;;;;;;;12.10;8.57;;;8.80;99.90;;;;;;5052551;28;20087;-79
2023/05/17 12:43:38;;;;;;;15.27;8.38;;;8.80;99.90;;;;;;5050105;28;20366;-80
2023/05/17 12:46:08;;;;;;;16.55;8.73;;;8.80;99.90;;;;;;5052624;28;20092;-80